Terminal Aerodrome Forecast
Issued by NWS

Home | Current Version | Previous Version | Graphics & Text | Print | Product List | Glossary On
Versions: 1 2 3 4 5 6 7 8 9 10 11 12 13 14 15 16
319
FTUS43 KTOP 161124 CCA
TAFMHK
TAF COR
KMHK 161124Z 1612/1712 VRB03KT P6SM SCT200
     FM161500 14008KT P6SM FEW250
     FM161800 16011G20KT P6SM FEW250
     FM170000 15009KT P6SM SCT200
     FM170700 18011G19KT 6SM BR BKN015=

USA.gov is the U.S. government's official web portal to all federal, state and local government web resources and services.